createdAt,value
2019-02-08T00:02:00.365Z,5.40
2019-02-08T00:04:21.846Z,5.50
2019-02-08T00:06:43.096Z,5.40
2019-02-08T00:09:06.176Z,5.40
2019-02-08T00:11:27.488Z,5.40
2019-02-08T00:13:48.822Z,5.40
2019-02-08T00:16:10.129Z,5.40
2019-02-08T00:18:31.455Z,5.40
2019-02-08T00:20:53.430Z,5.40
2019-02-08T00:23:26.176Z,5.50
2019-02-08T00:25:39.525Z,5.50
2019-02-08T00:28:00.895Z,5.50
2019-02-08T00:30:26.297Z,5.60
2019-02-08T00:32:47.635Z,5.60
2019-02-08T00:35:08.976Z,5.60
2019-02-08T00:37:30.192Z,5.70
2019-02-08T00:39:51.526Z,5.60
2019-02-08T00:42:12.766Z,5.70
2019-02-08T00:44:34.095Z,5.80
2019-02-08T00:46:55.343Z,5.90
2019-02-08T00:49:16.704Z,5.80
2019-02-08T00:51:38.003Z,5.80
2019-02-08T00:53:59.224Z,5.90
2019-02-08T00:56:20.926Z,5.90
2019-02-08T00:58:42.258Z,5.90
2019-02-08T01:01:04.988Z,6.00
2019-02-08T01:03:48.471Z,6.00
2019-02-08T01:06:09.810Z,6.00
2019-02-08T01:08:31.199Z,6.10
2019-02-08T01:10:52.677Z,6.10
2019-02-08T01:13:14.218Z,6.20
2019-02-08T01:15:35.632Z,6.10
2019-02-08T01:17:56.914Z,6.10
2019-02-08T01:20:20.386Z,6.10
2019-02-08T01:22:41.692Z,6.10
2019-02-08T01:25:06.470Z,6.10
2019-02-08T01:27:29.236Z,6.10
2019-02-08T01:29:50.548Z,6.20
2019-02-08T01:32:12.151Z,6.20
2019-02-08T01:34:33.480Z,6.20
2019-02-08T01:36:54.754Z,6.20
2019-02-08T01:39:16.103Z,6.30
2019-02-08T01:41:37.452Z,6.30
2019-02-08T01:43:58.726Z,6.20
2019-02-08T01:46:20.320Z,6.20
2019-02-08T01:48:41.542Z,6.20
2019-02-08T01:51:02.882Z,6.20
2019-02-08T01:53:24.103Z,6.20
2019-02-08T01:55:45.406Z,6.20
2019-02-08T01:58:06.654Z,6.20
2019-02-08T02:00:35.323Z,6.20
2019-02-08T02:02:56.672Z,6.20
2019-02-08T02:05:18.021Z,6.20
2019-02-08T02:07:39.344Z,6.20
2019-02-08T02:10:00.557Z,6.20
2019-02-08T02:12:22.270Z,6.30
2019-02-08T02:14:43.480Z,6.30
2019-02-08T02:17:04.703Z,6.40
2019-02-08T02:19:27.192Z,6.40
2019-02-08T02:21:48.544Z,6.40
2019-02-08T02:24:09.780Z,6.50
2019-02-08T02:26:31.094Z,6.50
2019-02-08T02:28:52.322Z,6.50
2019-02-08T02:31:13.560Z,6.60
2019-02-08T02:33:34.779Z,6.60
2019-02-08T02:35:56.050Z,6.60
2019-02-08T02:38:17.309Z,6.60
2019-02-08T02:40:38.627Z,6.60
2019-02-08T02:42:59.998Z,6.60
2019-02-08T02:45:35.616Z,6.60
2019-02-08T02:47:56.873Z,6.70
2019-02-08T02:50:18.134Z,6.50
2019-02-08T02:52:39.399Z,6.60
2019-02-08T02:55:00.727Z,6.70
2019-02-08T02:57:21.967Z,6.60
2019-02-08T02:59:43.194Z,6.60
2019-02-08T03:02:04.633Z,6.60
2019-02-08T03:04:25.862Z,6.50
2019-02-08T03:06:47.209Z,6.50
2019-02-08T03:09:08.802Z,6.50
2019-02-08T03:11:31.038Z,6.50
2019-02-08T03:13:52.268Z,6.50
2019-02-08T03:16:13.509Z,6.50
2019-02-08T03:18:34.883Z,6.50
2019-02-08T03:20:56.114Z,6.50
2019-02-08T03:23:17.376Z,6.40
2019-02-08T03:25:38.703Z,6.50
2019-02-08T03:27:59.973Z,6.50
2019-02-08T03:30:28.528Z,6.50
2019-02-08T03:32:49.898Z,6.40
2019-02-08T03:35:14.605Z,6.40
2019-02-08T03:37:36.129Z,6.40
2019-02-08T03:39:57.447Z,6.40
2019-02-08T03:42:18.812Z,6.40
2019-02-08T03:44:40.057Z,6.40
2019-02-08T03:47:01.557Z,6.40
2019-02-08T03:49:23.142Z,6.40
2019-02-08T03:51:44.359Z,6.40
2019-02-08T03:54:05.584Z,6.40
2019-02-08T03:56:26.822Z,6.30
2019-02-08T03:58:48.075Z,6.30
2019-02-08T04:01:09.650Z,6.30
2019-02-08T04:03:30.899Z,6.30
2019-02-08T04:05:52.318Z,6.30
2019-02-08T04:08:13.647Z,6.30
2019-02-08T04:10:34.954Z,6.20
2019-02-08T04:12:56.180Z,6.20
2019-02-08T04:15:26.285Z,6.20
2019-02-08T04:17:47.531Z,6.20
2019-02-08T04:20:11.775Z,6.30
2019-02-08T04:22:33.090Z,6.20
2019-02-08T04:24:54.332Z,6.20
2019-02-08T04:27:15.562Z,6.20
2019-02-08T04:29:37.092Z,6.20
2019-02-08T04:31:58.410Z,6.20
2019-02-08T04:34:20.258Z,6.20
2019-02-08T04:36:41.692Z,6.30
2019-02-08T04:39:05.915Z,6.30
2019-02-08T04:41:29.354Z,6.30
2019-02-08T04:43:50.832Z,6.30
2019-02-08T04:46:12.074Z,6.30
2019-02-08T04:48:33.343Z,6.30
2019-02-08T04:50:54.710Z,6.30
2019-02-08T04:53:16.039Z,6.30
2019-02-08T04:55:37.265Z,6.30
2019-02-08T04:57:58.759Z,6.30
2019-02-08T05:00:34.380Z,6.30
2019-02-08T05:02:55.700Z,6.30
2019-02-08T05:05:16.981Z,6.30
2019-02-08T05:07:38.419Z,6.40
2019-02-08T05:09:59.692Z,6.30
2019-02-08T05:12:21.114Z,6.40
2019-02-08T05:14:42.367Z,6.40
2019-02-08T05:17:04.005Z,6.40
2019-02-08T05:19:25.627Z,6.50
2019-02-08T05:21:46.908Z,6.40
2019-02-08T05:24:08.142Z,6.40
2019-02-08T05:26:29.342Z,6.40
2019-02-08T05:28:50.558Z,6.40
2019-02-08T05:31:11.763Z,6.50
2019-02-08T05:33:34.111Z,6.50
2019-02-08T05:35:55.723Z,6.50
2019-02-08T05:38:16.982Z,6.50
2019-02-08T05:40:38.177Z,6.50
2019-02-08T05:42:59.481Z,6.50
2019-02-08T05:45:22.107Z,6.40
2019-02-08T05:47:43.555Z,6.40
2019-02-08T05:50:11.391Z,6.30
2019-02-08T05:52:32.590Z,6.20
2019-02-08T05:54:54.588Z,6.10
2019-02-08T05:57:17.341Z,6.00
2019-02-08T05:59:38.846Z,5.90
2019-02-08T06:02:00.041Z,5.80
2019-02-08T06:04:21.372Z,5.80
2019-02-08T06:06:42.663Z,5.80
2019-02-08T06:09:06.595Z,5.70
2019-02-08T06:11:28.117Z,5.60
2019-02-08T06:13:49.530Z,5.60
2019-02-08T06:16:11.214Z,5.50
2019-02-08T06:18:32.510Z,5.50
2019-02-08T06:20:53.864Z,5.40
2019-02-08T06:23:15.205Z,5.40
2019-02-08T06:25:36.502Z,5.30
2019-02-08T06:27:57.782Z,5.40
2019-02-08T06:30:45.998Z,5.30
2019-02-08T06:33:07.450Z,5.30
2019-02-08T06:35:28.802Z,5.30
2019-02-08T06:37:50.002Z,5.30
2019-02-08T06:40:16.919Z,5.30
2019-02-08T06:42:38.361Z,5.30
2019-02-08T06:44:59.625Z,5.30
2019-02-08T06:47:21.016Z,5.20
2019-02-08T06:49:42.503Z,5.20
2019-02-08T06:52:03.787Z,5.20
2019-02-08T06:54:25.065Z,5.20
2019-02-08T06:56:54.254Z,5.20
2019-02-08T06:59:20.692Z,5.10
2019-02-08T07:01:49.434Z,5.20
2019-02-08T07:04:18.555Z,5.20
2019-02-08T07:06:41.682Z,5.20
2019-02-08T07:09:08.511Z,5.20
2019-02-08T07:11:37.671Z,5.40
2019-02-08T07:14:00.968Z,5.30
2019-02-08T07:19:38.543Z,5.40
2019-02-08T07:22:01.665Z,5.50
2019-02-08T07:24:39.861Z,5.50
2019-02-08T07:27:02.977Z,5.50
2019-02-08T07:29:42.673Z,5.60
2019-02-08T07:32:22.793Z,5.60
2019-02-08T07:34:45.946Z,5.60
2019-02-08T07:37:25.833Z,5.70
2019-02-08T07:40:08.946Z,5.80
2019-02-08T07:42:44.059Z,5.90
2019-02-08T07:45:09.189Z,6.00
2019-02-08T07:50:26.799Z,6.20
2019-02-08T07:55:37.991Z,6.30
2019-02-08T07:58:10.125Z,6.40
2019-02-08T08:00:49.958Z,6.40
2019-02-08T08:03:28.168Z,6.50
2019-02-08T08:06:00.631Z,6.60
2019-02-08T08:11:23.829Z,6.80
2019-02-08T08:13:46.923Z,7.00
2019-02-08T08:16:10.089Z,7.10
2019-02-08T08:18:45.224Z,7.20
2019-02-08T08:21:24.865Z,7.30
2019-02-08T08:23:47.989Z,7.50
2019-02-08T08:26:11.126Z,7.50
2019-02-08T08:28:37.096Z,7.70
2019-02-08T08:31:25.032Z,7.70
2019-02-08T08:34:11.442Z,7.80
2019-02-08T08:36:53.157Z,8.00
2019-02-08T08:39:34.381Z,8.10
2019-02-08T08:42:30.766Z,8.20
2019-02-08T08:45:07.817Z,8.30
2019-02-08T08:47:52.358Z,8.30
2019-02-08T08:50:26.253Z,8.40
2019-02-08T08:52:57.336Z,8.50
2019-02-08T08:55:28.267Z,8.60
2019-02-08T08:58:05.242Z,8.70
2019-02-08T09:00:47.857Z,8.70
2019-02-08T09:03:18.632Z,8.80
2019-02-08T09:06:08.638Z,9.00
2019-02-08T09:08:40.363Z,9.10
2019-02-08T09:11:39.126Z,9.30
2019-02-08T09:14:16.221Z,9.30
2019-02-08T09:16:54.289Z,9.40
2019-02-08T09:19:39.046Z,9.40
2019-02-08T09:22:04.066Z,9.50
2019-02-08T09:24:47.318Z,9.70
2019-02-08T09:27:30.807Z,9.70
2019-02-08T09:30:30.714Z,9.80
2019-02-08T09:32:58.534Z,9.80
2019-02-08T09:35:40.065Z,10.00
2019-02-08T09:38:21.757Z,10.00
2019-02-08T09:41:10.265Z,10.00
2019-02-08T09:44:09.013Z,10.10
2019-02-08T09:46:56.720Z,10.10
2019-02-08T09:49:38.402Z,10.10
2019-02-08T09:52:39.437Z,10.10
2019-02-08T09:55:16.455Z,10.10
2019-02-08T09:58:10.888Z,10.10
2019-02-08T10:00:58.741Z,10.30
2019-02-08T10:03:26.789Z,10.40
2019-02-08T10:05:57.661Z,10.60
2019-02-08T10:08:39.612Z,10.70
2019-02-08T10:11:16.717Z,10.80
2019-02-08T10:14:01.710Z,10.80
2019-02-08T10:16:29.726Z,10.80
2019-02-08T10:19:14.437Z,10.70
2019-02-08T10:21:58.908Z,10.60
2019-02-08T10:24:42.197Z,10.60
2019-02-08T10:27:22.616Z,10.40
2019-02-08T10:30:11.181Z,10.40
2019-02-08T10:33:00.049Z,10.40
2019-02-08T10:35:34.531Z,10.40
2019-02-08T10:38:14.356Z,10.40
2019-02-08T10:40:58.983Z,10.40
2019-02-08T10:43:45.158Z,10.50
2019-02-08T10:46:35.992Z,10.40
2019-02-08T10:49:48.254Z,10.40
2019-02-08T10:52:30.023Z,10.40
2019-02-08T10:55:14.820Z,10.50
2019-02-08T10:57:56.333Z,10.60
2019-02-08T11:00:54.786Z,10.60
2019-02-08T11:03:41.186Z,10.60
2019-02-08T11:06:27.430Z,10.60
2019-02-08T11:09:25.852Z,10.60
2019-02-08T11:12:13.682Z,10.70
2019-02-08T11:14:56.723Z,10.70
2019-02-08T11:17:33.439Z,10.70
2019-02-08T11:19:54.709Z,10.80
2019-02-08T11:22:16.022Z,10.90
2019-02-08T11:24:37.247Z,11.00
2019-02-08T11:26:58.454Z,11.00
2019-02-08T11:29:19.755Z,11.10
2019-02-08T11:31:40.964Z,11.20
2019-02-08T11:34:02.188Z,11.10
2019-02-08T11:36:23.405Z,11.20
2019-02-08T11:38:44.602Z,11.20
2019-02-08T11:41:05.823Z,11.20
2019-02-08T11:43:27.128Z,11.20
2019-02-08T11:45:48.336Z,11.20
2019-02-08T11:48:09.569Z,11.30
2019-02-08T11:50:30.804Z,11.30
2019-02-08T11:52:52.004Z,11.40
2019-02-08T11:55:13.207Z,11.40
2019-02-08T11:57:34.442Z,11.50
2019-02-08T11:59:55.886Z,11.60
2019-02-08T12:02:17.090Z,11.50
2019-02-08T12:04:38.421Z,11.70
2019-02-08T12:06:59.891Z,11.60
2019-02-08T12:09:22.143Z,11.70
2019-02-08T12:11:44.388Z,11.80
2019-02-08T12:14:07.269Z,11.90
2019-02-08T12:16:29.388Z,11.90
2019-02-08T12:18:51.324Z,11.90
2019-02-08T12:21:13.389Z,11.90
2019-02-08T12:23:36.572Z,12.00
2019-02-08T12:25:58.134Z,12.00
2019-02-08T12:28:20.877Z,12.00
2019-02-08T12:30:43.854Z,12.00
2019-02-08T12:33:05.880Z,12.00
2019-02-08T12:35:27.500Z,12.10
2019-02-08T12:37:49.669Z,12.20
2019-02-08T12:40:12.700Z,12.20
2019-02-08T12:42:35.284Z,12.20
2019-02-08T12:44:56.912Z,12.10
2019-02-08T12:47:18.893Z,12.10
2019-02-08T12:49:40.545Z,12.20
2019-02-08T12:52:01.752Z,12.10
2019-02-08T12:54:23.271Z,12.20
2019-02-08T12:56:45.851Z,12.20
2019-02-08T12:59:07.257Z,12.20
2019-02-08T13:01:28.754Z,12.00
2019-02-08T13:03:49.958Z,12.00
2019-02-08T13:06:11.200Z,12.00
2019-02-08T13:08:32.408Z,12.00
2019-02-08T13:10:53.601Z,11.80
2019-02-08T13:13:15.002Z,11.90
2019-02-08T13:15:36.208Z,11.90
2019-02-08T13:17:57.404Z,12.00
2019-02-08T13:20:19.915Z,12.10
2019-02-08T13:22:41.125Z,12.20
2019-02-08T13:25:03.826Z,12.20
2019-02-08T13:27:26.039Z,12.10
2019-02-08T13:29:47.260Z,12.00
2019-02-08T13:32:08.483Z,12.10
2019-02-08T13:34:29.719Z,12.20
2019-02-08T13:36:51.010Z,12.20
2019-02-08T13:39:12.189Z,12.20
2019-02-08T13:41:33.399Z,12.20
2019-02-08T13:43:54.825Z,12.20
2019-02-08T13:46:16.018Z,12.20
2019-02-08T13:48:37.214Z,12.10
2019-02-08T13:50:58.737Z,12.10
2019-02-08T13:53:19.917Z,12.10
2019-02-08T13:55:41.411Z,12.10
2019-02-08T13:58:03.717Z,12.10
2019-02-08T14:00:29.172Z,12.10
2019-02-08T14:02:51.327Z,12.00
2019-02-08T14:05:13.815Z,12.10
2019-02-08T14:07:35.866Z,12.10
2019-02-08T14:09:57.946Z,12.20
2019-02-08T14:12:19.737Z,12.10
2019-02-08T14:14:41.131Z,12.00
2019-02-08T14:17:02.658Z,12.00
2019-02-08T14:19:24.492Z,12.10
2019-02-08T14:21:46.347Z,12.00
2019-02-08T14:24:08.318Z,12.10
2019-02-08T14:26:32.589Z,12.00
2019-02-08T14:28:55.003Z,11.90
2019-02-08T14:31:16.914Z,11.80
2019-02-08T14:33:39.731Z,11.80
2019-02-08T14:36:03.642Z,11.90
2019-02-08T14:38:26.690Z,11.90
2019-02-08T14:40:48.134Z,11.80
2019-02-08T14:43:09.362Z,11.70
2019-02-08T14:45:30.555Z,11.70
2019-02-08T14:47:51.773Z,11.70
2019-02-08T14:50:16.284Z,11.70
2019-02-08T14:52:37.533Z,11.70
2019-02-08T14:54:58.749Z,11.60
2019-02-08T14:57:19.967Z,11.60
2019-02-08T14:59:41.511Z,11.60
2019-02-08T15:02:02.863Z,11.50
2019-02-08T15:04:24.372Z,11.50
2019-02-08T15:06:46.052Z,11.50
2019-02-08T15:09:07.847Z,11.40
2019-02-08T15:11:29.226Z,11.50
2019-02-08T15:13:50.493Z,11.40
2019-02-08T15:16:11.690Z,11.40
2019-02-08T15:18:32.935Z,11.30
2019-02-08T15:20:54.137Z,11.30
2019-02-08T15:23:15.381Z,11.20
2019-02-08T15:25:36.597Z,11.20
2019-02-08T15:27:57.823Z,11.20
2019-02-08T15:30:22.199Z,11.10
2019-02-08T15:32:44.464Z,10.90
2019-02-08T15:35:08.862Z,10.90
2019-02-08T15:37:30.116Z,10.90
2019-02-08T15:39:51.341Z,10.70
2019-02-08T15:42:12.622Z,10.70
2019-02-08T15:44:33.834Z,10.60
2019-02-08T15:46:55.156Z,10.60
2019-02-08T15:49:16.460Z,10.60
2019-02-08T15:51:37.947Z,10.60
2019-02-08T15:53:59.170Z,10.50
2019-02-08T15:56:20.405Z,10.50
2019-02-08T15:58:41.660Z,10.40
2019-02-08T16:01:05.508Z,10.40
2019-02-08T16:03:26.737Z,10.30
2019-02-08T16:05:47.977Z,10.30
2019-02-08T16:08:09.495Z,10.20
2019-02-08T16:10:30.923Z,10.20
2019-02-08T16:12:52.147Z,10.10
2019-02-08T16:15:16.258Z,10.10
2019-02-08T16:17:37.556Z,10.10
2019-02-08T16:19:58.776Z,10.00
2019-02-08T16:22:20.068Z,10.00
2019-02-08T16:24:41.294Z,10.00
2019-02-08T16:27:02.556Z,9.90
2019-02-08T16:29:24.762Z,9.90
2019-02-08T16:31:45.991Z,9.90
2019-02-08T16:34:07.522Z,9.80
2019-02-08T16:36:28.710Z,9.80
2019-02-08T16:38:49.907Z,9.80
2019-02-08T16:41:11.115Z,9.80
2019-02-08T16:43:32.729Z,9.60
2019-02-08T16:45:55.972Z,9.60
2019-02-08T16:48:17.276Z,9.50
2019-02-08T16:50:38.861Z,9.50
2019-02-08T16:53:00.382Z,9.50
2019-02-08T16:55:21.688Z,9.40
2019-02-08T16:57:47.829Z,9.40
2019-02-08T17:00:14.045Z,9.30
2019-02-08T17:02:35.337Z,9.30
2019-02-08T17:04:56.802Z,9.20
2019-02-08T17:07:18.032Z,9.20
2019-02-08T17:09:39.434Z,9.10
2019-02-08T17:12:00.625Z,9.10
2019-02-08T17:14:21.833Z,9.00
2019-02-08T17:16:43.045Z,8.90
2019-02-08T17:19:04.262Z,8.90
2019-02-08T17:21:25.448Z,8.90
2019-02-08T17:23:46.676Z,8.80
2019-02-08T17:26:08.014Z,8.70
2019-02-08T17:28:29.221Z,8.60
2019-02-08T17:30:50.427Z,8.60
2019-02-08T17:33:11.743Z,8.50
2019-02-08T17:35:34.254Z,8.40
2019-02-08T17:37:55.576Z,8.40
2019-02-08T17:40:19.673Z,8.30
2019-02-08T17:42:42.150Z,8.20
2019-02-08T17:45:07.150Z,8.10
2019-02-08T17:47:28.327Z,8.10
2019-02-08T17:49:50.369Z,8.10
2019-02-08T17:52:11.599Z,8.00
2019-02-08T17:54:32.799Z,7.90
2019-02-08T17:56:53.995Z,7.90
2019-02-08T17:59:15.249Z,7.70
2019-02-08T18:01:36.442Z,7.70
2019-02-08T18:03:57.662Z,7.70
2019-02-08T18:06:18.860Z,7.60
2019-02-08T18:08:41.606Z,7.50
2019-02-08T18:11:02.869Z,7.50
2019-02-08T18:13:24.485Z,7.40
2019-02-08T18:15:45.772Z,7.40
2019-02-08T18:18:09.678Z,7.50
2019-02-08T18:20:46.414Z,7.50
2019-02-08T18:23:08.797Z,7.50
2019-02-08T18:25:31.375Z,7.40
2019-02-08T18:27:52.672Z,7.40
2019-02-08T18:30:21.229Z,7.30
2019-02-08T18:32:42.654Z,7.30
2019-02-08T18:35:05.230Z,7.30
2019-02-08T18:37:26.576Z,7.30
2019-02-08T18:39:48.045Z,7.30
2019-02-08T18:42:09.285Z,7.30
2019-02-08T18:44:34.406Z,7.40
2019-02-08T18:46:57.690Z,7.40
2019-02-08T18:49:19.278Z,7.40
2019-02-08T18:51:40.578Z,7.30
2019-02-08T18:54:03.807Z,7.40
2019-02-08T18:56:25.098Z,7.30
2019-02-08T18:58:46.767Z,7.30
2019-02-08T19:01:09.179Z,7.30
2019-02-08T19:03:30.460Z,7.40
2019-02-08T19:05:52.140Z,7.40
2019-02-08T19:08:13.422Z,7.40
2019-02-08T19:10:35.126Z,7.30
2019-02-08T19:12:56.855Z,7.30
2019-02-08T19:15:22.811Z,7.30
2019-02-08T19:17:44.263Z,7.20
2019-02-08T19:20:11.746Z,7.20
2019-02-08T19:22:33.037Z,7.20
2019-02-08T19:24:54.284Z,7.20
2019-02-08T19:27:15.525Z,7.20
2019-02-08T19:29:37.105Z,7.30
2019-02-08T19:31:58.746Z,7.10
2019-02-08T19:34:20.254Z,7.20
2019-02-08T19:36:41.472Z,7.20
2019-02-08T19:39:05.794Z,7.20
2019-02-08T19:41:27.128Z,7.20
2019-02-08T19:43:48.472Z,7.10
2019-02-08T19:46:09.798Z,7.10
2019-02-08T19:48:31.002Z,7.10
2019-02-08T19:50:52.242Z,7.00
2019-02-08T19:53:13.936Z,7.00
2019-02-08T19:55:35.398Z,7.00
2019-02-08T19:57:56.722Z,7.00
2019-02-08T20:00:26.566Z,6.90
2019-02-08T20:02:47.803Z,6.90
2019-02-08T20:05:12.351Z,6.90
2019-02-08T20:07:34.568Z,6.80
2019-02-08T20:09:56.462Z,6.80
2019-02-08T20:12:18.234Z,6.80
2019-02-08T20:14:39.830Z,6.70
2019-02-08T20:17:01.687Z,6.70
2019-02-08T20:19:22.966Z,6.70
2019-02-08T20:21:44.514Z,6.60
2019-02-08T20:24:05.813Z,6.60
2019-02-08T20:26:27.079Z,6.60
2019-02-08T20:28:48.827Z,6.60
2019-02-08T20:31:10.506Z,6.50
2019-02-08T20:33:31.777Z,6.50
2019-02-08T20:35:53.255Z,6.50
2019-02-08T20:38:14.591Z,6.50
2019-02-08T20:40:38.919Z,6.40
2019-02-08T20:43:00.145Z,6.40
2019-02-08T20:45:24.988Z,6.30
2019-02-08T20:47:46.313Z,6.30
2019-02-08T20:50:08.377Z,6.30
2019-02-08T20:52:29.739Z,6.30
2019-02-08T20:54:51.683Z,6.20
2019-02-08T20:57:12.963Z,6.20
2019-02-08T20:59:34.520Z,6.10
2019-02-08T21:01:56.022Z,6.10
2019-02-08T21:04:17.223Z,6.10
2019-02-08T21:06:39.584Z,6.10
2019-02-08T21:09:01.323Z,6.00
2019-02-08T21:11:24.673Z,6.00
2019-02-08T21:13:46.056Z,6.00
2019-02-08T21:16:07.495Z,6.00
2019-02-08T21:18:29.258Z,6.00
2019-02-08T21:20:50.497Z,6.00
2019-02-08T21:23:13.181Z,5.90
2019-02-08T21:25:38.024Z,5.90
2019-02-08T21:27:59.483Z,5.80
2019-02-08T21:30:20.688Z,5.80
2019-02-08T21:32:42.543Z,5.80
2019-02-08T21:35:25.742Z,5.80
2019-02-08T21:37:47.542Z,5.80
2019-02-08T21:40:30.525Z,5.60
2019-02-08T21:42:51.838Z,5.60
2019-02-08T21:45:43.907Z,5.60
2019-02-08T21:48:10.576Z,5.60
2019-02-08T21:50:32.617Z,5.60
2019-02-08T21:52:54.026Z,5.50
2019-02-08T21:55:20.482Z,5.40
2019-02-08T21:57:41.873Z,5.30
2019-02-08T22:00:24.189Z,5.30
2019-02-08T22:02:45.503Z,5.30
2019-02-08T22:05:28.526Z,5.20
2019-02-08T22:07:49.732Z,5.20
2019-02-08T22:10:13.604Z,5.10
2019-02-08T22:12:35.210Z,5.10
2019-02-08T22:14:56.750Z,5.00
2019-02-08T22:17:18.381Z,4.90
2019-02-08T22:19:39.583Z,4.90
2019-02-08T22:22:00.925Z,4.90
2019-02-08T22:24:23.467Z,4.90
2019-02-08T22:26:44.657Z,4.80
2019-02-08T22:29:13.682Z,4.70
2019-02-08T22:31:29.343Z,4.80
2019-02-08T22:33:51.286Z,4.70
2019-02-08T22:36:12.608Z,4.60
2019-02-08T22:38:33.889Z,4.60
2019-02-08T22:40:55.065Z,4.60
2019-02-08T22:43:16.296Z,4.60
2019-02-08T22:45:39.900Z,4.50
2019-02-08T22:48:01.114Z,4.50
2019-02-08T22:50:22.296Z,4.50
2019-02-08T22:52:44.519Z,4.50
2019-02-08T22:55:09.522Z,4.50
2019-02-08T22:57:30.758Z,4.60
2019-02-08T22:59:52.443Z,4.60
2019-02-08T23:02:13.656Z,4.60
2019-02-08T23:04:34.876Z,4.70
2019-02-08T23:06:56.075Z,4.70
2019-02-08T23:09:26.911Z,4.70
2019-02-08T23:11:48.112Z,4.70
2019-02-08T23:14:09.326Z,4.70
2019-02-08T23:16:30.655Z,4.80
2019-02-08T23:18:51.978Z,4.80
2019-02-08T23:21:13.397Z,4.80
2019-02-08T23:23:34.601Z,4.90
2019-02-08T23:25:55.803Z,4.90
2019-02-08T23:28:17.026Z,5.00
2019-02-08T23:30:38.322Z,5.00
2019-02-08T23:32:59.525Z,5.10
2019-02-08T23:35:21.254Z,5.30
2019-02-08T23:37:42.444Z,5.30
2019-02-08T23:40:06.537Z,5.40
2019-02-08T23:42:27.733Z,5.40
2019-02-08T23:44:48.943Z,5.60
2019-02-08T23:47:10.118Z,5.60
2019-02-08T23:49:31.329Z,5.70
2019-02-08T23:51:52.500Z,5.70
2019-02-08T23:54:13.797Z,5.80
2019-02-08T23:56:35.329Z,5.80
2019-02-08T23:58:56.528Z,5.80
